Time;durP1;ratioP1;P1;durP2;ratioP2;P2;SDS_P1;SDS_P2;PMS_P1;PMS_P2;Temp;Humidity;BMP_temperature;BMP_pressure;BME280_temperature;BME280_humidity;BME280_pressure;Samples;Min_cycle;Max_cycle;Signal;HPM_P1;HPM_P2
2023/01/22 00:01:32;;;;;;;19.52;10.07;;;4.10;98.90;;;;;;5055443;28;20039;-56
2023/01/22 00:03:58;;;;;;;18.33;9.30;;;4.10;98.50;;;;;;5050090;28;20039;-61
2023/01/22 00:06:24;;;;;;;18.00;9.57;;;4.10;98.50;;;;;;5047765;28;20422;-60
2023/01/22 00:08:51;;;;;;;15.23;8.65;;;4.10;98.50;;;;;;5052639;28;20029;-60
2023/01/22 00:11:18;;;;;;;17.35;9.55;;;4.10;98.80;;;;;;5049822;28;20039;-60
2023/01/22 00:13:44;;;;;;;19.88;10.43;;;4.10;98.90;;;;;;5047696;28;20080;-59
2023/01/22 00:16:15;;;;;;;15.25;9.27;;;4.10;99.00;;;;;;5036265;28;20025;-50
2023/01/22 00:18:41;;;;;;;16.50;8.60;;;4.10;99.00;;;;;;5043382;28;20046;-48
2023/01/22 00:21:07;;;;;;;18.45;9.43;;;4.10;99.00;;;;;;5055448;28;20044;-48
2023/01/22 00:23:33;;;;;;;18.90;9.40;;;4.10;99.20;;;;;;5056744;28;20036;-52
2023/01/22 00:26:03;;;;;;;18.48;9.80;;;4.10;99.30;;;;;;5055787;28;20028;-61
2023/01/22 00:28:30;;;;;;;19.80;10.35;;;4.10;99.10;;;;;;5059796;28;20054;-61
2023/01/22 00:31:03;;;;;;;21.15;10.75;;;4.10;99.10;;;;;;5053743;28;20116;-61
2023/01/22 00:33:29;;;;;;;19.80;11.15;;;4.10;98.70;;;;;;5061459;28;20033;-61
2023/01/22 00:35:55;;;;;;;20.73;11.02;;;4.10;98.70;;;;;;5064240;28;20143;-60
2023/01/22 00:38:21;;;;;;;22.50;12.80;;;4.10;98.60;;;;;;5055403;28;20123;-60
2023/01/22 00:40:46;;;;;;;28.40;13.90;;;4.10;98.50;;;;;;5054237;28;20104;-48
2023/01/22 00:43:12;;;;;;;24.17;14.63;;;4.10;98.10;;;;;;5050183;28;20037;-48
2023/01/22 00:45:38;;;;;;;25.95;14.75;;;4.00;97.90;;;;;;5048461;28;20276;-60
2023/01/22 00:48:04;;;;;;;29.02;16.52;;;3.90;98.00;;;;;;5051155;28;20037;-59
2023/01/22 00:50:30;;;;;;;28.88;16.95;;;3.90;98.20;;;;;;5051718;28;20032;-62
2023/01/22 00:52:56;;;;;;;32.30;17.30;;;3.80;98.30;;;;;;5054901;28;20033;-60
2023/01/22 00:55:22;;;;;;;33.53;18.23;;;3.80;98.30;;;;;;5053089;28;20459;-52
2023/01/22 00:57:47;;;;;;;29.67;16.58;;;3.80;98.30;;;;;;5054634;28;20032;-50
2023/01/22 01:00:14;;;;;;;30.42;17.42;;;3.70;98.40;;;;;;5063706;28;20043;-60
2023/01/22 01:05:25;;;;;;;32.42;17.33;;;3.60;98.60;;;;;;5045207;28;20040;-60
2023/01/22 01:07:51;;;;;;;30.65;17.10;;;3.60;98.50;;;;;;5052015;28;20478;-60
2023/01/22 01:10:17;;;;;;;30.50;17.52;;;3.60;98.70;;;;;;5050896;28;20033;-61
2023/01/22 01:12:42;;;;;;;30.60;17.70;;;3.60;98.70;;;;;;5051518;28;20045;-60
2023/01/22 01:15:08;;;;;;;30.15;17.10;;;3.50;98.70;;;;;;5054868;28;20492;-61
2023/01/22 01:17:34;;;;;;;29.98;17.42;;;3.50;98.50;;;;;;5062417;28;20082;-61
2023/01/22 01:20:00;;;;;;;33.53;16.70;;;3.40;98.60;;;;;;5051287;28;20498;-61
2023/01/22 01:22:26;;;;;;;33.47;18.42;;;3.40;98.90;;;;;;5050776;28;20033;-61
2023/01/22 01:24:51;;;;;;;34.17;18.45;;;3.40;98.90;;;;;;5051179;28;20033;-60
2023/01/22 01:27:17;;;;;;;32.63;18.52;;;3.40;98.80;;;;;;5050084;28;20025;-60
2023/01/22 01:29:43;;;;;;;31.30;17.90;;;3.30;98.80;;;;;;5060149;28;20032;-61
2023/01/22 01:32:09;;;;;;;31.45;18.00;;;3.30;98.90;;;;;;5051631;28;20421;-60
2023/01/22 01:34:34;;;;;;;29.45;17.52;;;3.30;99.30;;;;;;5052944;28;20468;-60
2023/01/22 01:37:00;;;;;;;29.48;17.13;;;3.30;99.20;;;;;;5059098;28;20043;-61
2023/01/22 01:39:25;;;;;;;27.63;15.60;;;3.20;99.30;;;;;;5051526;28;20083;-60
2023/01/22 01:41:51;;;;;;;22.85;14.07;;;3.30;99.50;;;;;;5050010;28;20083;-61
2023/01/22 01:44:22;;;;;;;30.33;15.82;;;3.20;99.70;;;;;;5051659;28;20040;-61
2023/01/22 01:46:56;;;;;;;30.48;16.30;;;3.30;99.90;;;;;;5051342;28;20041;-61
2023/01/22 01:49:33;;;;;;;28.60;16.30;;;3.20;99.50;;;;;;5051413;28;20036;-62
2023/01/22 01:52:03;;;;;;;27.50;16.13;;;3.20;99.40;;;;;;5051972;28;20032;-61
2023/01/22 01:54:29;;;;;;;24.30;14.35;;;3.20;99.70;;;;;;5058585;28;20536;-61
2023/01/22 01:57:03;;;;;;;26.90;16.13;;;3.20;99.70;;;;;;5051270;28;20045;-61
2023/01/22 01:59:32;;;;;;;25.77;15.00;;;3.20;99.30;;;;;;5050536;28;20036;-60
2023/01/22 02:02:00;;;;;;;29.17;16.00;;;3.20;99.50;;;;;;5050532;28;20037;-61
2023/01/22 02:04:27;;;;;;;28.70;16.33;;;3.20;99.60;;;;;;5042397;28;20029;-60
2023/01/22 02:06:53;;;;;;;28.42;15.45;;;3.20;99.50;;;;;;5059730;28;20410;-61
2023/01/22 02:09:19;;;;;;;26.88;14.90;;;3.20;99.60;;;;;;5056677;28;20414;-61
2023/01/22 02:11:45;;;;;;;28.65;15.85;;;3.10;99.90;;;;;;5050948;28;20040;-61
2023/01/22 02:14:18;;;;;;;26.65;15.15;;;3.20;99.70;;;;;;5052720;28;20082;-59
2023/01/22 02:16:44;;;;;;;29.92;15.90;;;3.10;99.60;;;;;;5053013;28;20059;-61
2023/01/22 02:19:10;;;;;;;28.45;14.95;;;3.10;99.60;;;;;;5056576;28;20170;-61
2023/01/22 02:21:41;;;;;;;27.40;15.05;;;3.10;99.60;;;;;;5049906;28;20576;-58
2023/01/22 02:24:15;;;;;;;28.50;15.82;;;3.10;99.80;;;;;;5046449;28;20040;-60
2023/01/22 02:26:42;;;;;;;28.75;16.70;;;3.10;99.80;;;;;;5048071;28;20036;-48
2023/01/22 02:29:10;;;;;;;30.70;16.35;;;3.10;99.90;;;;;;5054541;28;20111;-49
2023/01/22 02:31:37;;;;;;;30.65;15.77;;;3.10;99.70;;;;;;5060086;28;20070;-48
2023/01/22 02:34:04;;;;;;;33.20;16.77;;;3.10;99.70;;;;;;5061200;28;20123;-49
2023/01/22 02:36:32;;;;;;;29.40;17.30;;;3.10;99.70;;;;;;5051518;28;20029;-61
2023/01/22 02:38:57;;;;;;;29.58;16.55;;;3.00;99.70;;;;;;5055561;28;20040;-60
2023/01/22 02:41:24;;;;;;;26.35;15.52;;;3.00;99.80;;;;;;5050873;28;20029;-52
2023/01/22 02:43:49;;;;;;;37.15;18.60;;;3.00;99.90;;;;;;5058957;28;20079;-51
2023/01/22 02:46:15;;;;;;;31.90;17.70;;;3.00;99.90;;;;;;5053279;28;20452;-58
2023/01/22 02:48:41;;;;;;;35.97;17.92;;;2.90;99.90;;;;;;5053345;28;20729;-59
2023/01/22 02:51:06;;;;;;;29.75;17.33;;;2.90;99.90;;;;;;5052953;28;20037;-49
2023/01/22 02:53:32;;;;;;;32.38;18.10;;;2.90;99.90;;;;;;5048523;28;20037;-54
2023/01/22 02:55:58;;;;;;;31.00;17.90;;;2.90;99.90;;;;;;5058357;28;20025;-59
2023/01/22 02:58:23;;;;;;;31.60;18.08;;;2.90;99.90;;;;;;5049553;28;20048;-59
2023/01/22 03:00:49;;;;;;;31.48;16.85;;;2.90;99.90;;;;;;5047190;28;20035;-61
2023/01/22 03:03:14;;;;;;;33.70;19.23;;;2.90;99.90;;;;;;5051772;28;20048;-60
2023/01/22 03:05:47;;;;;;;32.13;17.25;;;2.80;99.90;;;;;;5059599;28;20418;-60
2023/01/22 03:08:12;;;;;;;32.47;16.98;;;2.80;99.90;;;;;;5059103;28;20037;-58
2023/01/22 03:10:38;;;;;;;31.67;17.92;;;2.80;99.90;;;;;;5054751;28;20051;-57
2023/01/22 03:21:17;;;;;;;30.80;17.95;;;2.80;99.90;;;;;;5047923;28;20031;-59
2023/01/22 03:23:51;;;;;;;35.35;18.30;;;2.80;99.90;;;;;;5053326;28;20310;-59
2023/01/22 03:26:18;;;;;;;32.15;18.63;;;2.80;99.90;;;;;;5057464;28;20036;-50
2023/01/22 03:28:44;;;;;;;34.08;19.13;;;2.80;99.90;;;;;;5048251;28;20463;-51
2023/01/22 03:31:11;;;;;;;36.80;18.83;;;2.80;99.90;;;;;;5057331;28;20025;-60
2023/01/22 03:33:37;;;;;;;37.90;19.60;;;2.80;99.90;;;;;;5044922;28;20094;-60
2023/01/22 03:36:05;;;;;;;33.45;20.13;;;2.80;99.90;;;;;;5058668;28;20483;-59
2023/01/22 03:38:31;;;;;;;33.13;18.88;;;2.80;99.90;;;;;;5049450;28;20029;-61
2023/01/22 03:41:06;;;;;;;34.75;18.88;;;2.80;99.90;;;;;;5057587;28;20607;-59
2023/01/22 03:43:33;;;;;;;33.45;18.65;;;2.80;99.90;;;;;;5037772;28;20416;-59
2023/01/22 03:46:04;;;;;;;31.05;17.80;;;2.80;99.90;;;;;;5049710;28;20033;-49
2023/01/22 03:48:30;;;;;;;33.42;18.10;;;2.80;99.90;;;;;;5057169;28;20025;-48
2023/01/22 03:50:56;;;;;;;35.10;17.50;;;2.80;99.90;;;;;;5051512;28;20421;-49
2023/01/22 03:53:21;;;;;;;34.35;18.63;;;2.80;99.90;;;;;;5051187;28;20368;-50
2023/01/22 03:55:59;;;;;;;38.50;18.77;;;2.80;99.90;;;;;;5048493;28;20084;-59
2023/01/22 03:58:25;;;;;;;33.85;17.80;;;2.80;99.90;;;;;;5056740;28;20478;-59
2023/01/22 04:00:50;;;;;;;36.38;18.38;;;2.80;99.90;;;;;;5048327;28;20066;-59
2023/01/22 04:03:16;;;;;;;40.35;19.35;;;2.70;99.90;;;;;;5053605;28;20475;-60
2023/01/22 04:05:42;;;;;;;37.05;19.08;;;2.70;99.90;;;;;;5058299;28;20029;-61
2023/01/22 04:08:07;;;;;;;33.15;18.30;;;2.70;99.90;;;;;;5058526;28;20028;-60
2023/01/22 04:10:33;;;;;;;33.40;18.35;;;2.70;99.90;;;;;;5054917;28;20044;-52
2023/01/22 04:12:58;;;;;;;34.17;19.17;;;2.70;99.90;;;;;;5054386;28;20033;-48
2023/01/22 04:15:24;;;;;;;33.35;18.42;;;2.70;99.90;;;;;;5055954;28;20052;-51
2023/01/22 04:17:50;;;;;;;35.88;19.20;;;2.70;99.90;;;;;;5052706;28;20045;-48
2023/01/22 04:20:16;;;;;;;38.53;19.35;;;2.60;99.90;;;;;;5052164;28;20067;-51
2023/01/22 04:22:41;;;;;;;40.72;20.75;;;2.70;99.90;;;;;;5050208;28;20066;-49
2023/01/22 04:25:07;;;;;;;38.15;19.88;;;2.60;99.90;;;;;;5052083;28;20025;-48
2023/01/22 04:27:36;;;;;;;42.72;21.00;;;2.60;99.90;;;;;;5054855;28;20404;-52
2023/01/22 04:30:04;;;;;;;41.55;21.50;;;2.60;99.90;;;;;;5054923;28;20045;-48
2023/01/22 04:32:29;;;;;;;39.85;21.48;;;2.60;99.90;;;;;;5058679;28;20036;-52
2023/01/22 04:34:55;;;;;;;40.50;21.10;;;2.60;99.90;;;;;;5052018;28;20029;-49
2023/01/22 04:37:20;;;;;;;42.10;21.63;;;2.60;99.90;;;;;;5053548;28;20040;-51
2023/01/22 04:39:46;;;;;;;38.22;21.55;;;2.60;99.90;;;;;;5052001;28;20037;-49
2023/01/22 04:42:12;;;;;;;43.15;22.08;;;2.60;99.90;;;;;;5051923;28;20438;-50
2023/01/22 04:44:37;;;;;;;45.25;22.48;;;2.60;99.90;;;;;;5061210;28;20088;-50
2023/01/22 04:47:03;;;;;;;39.95;21.80;;;2.60;99.90;;;;;;5053751;28;20112;-60
2023/01/22 04:49:28;;;;;;;40.38;22.23;;;2.60;99.90;;;;;;5059000;28;20086;-59
2023/01/22 04:51:55;;;;;;;43.65;23.58;;;2.60;99.90;;;;;;5044461;28;20607;-59
2023/01/22 04:54:20;;;;;;;50.17;25.25;;;2.60;99.90;;;;;;5056400;28;20037;-61
2023/01/22 04:56:46;;;;;;;45.42;23.15;;;2.60;99.90;;;;;;5051705;28;20368;-60
2023/01/22 04:59:11;;;;;;;42.83;22.02;;;2.60;99.90;;;;;;5053738;28;20107;-59
2023/01/22 05:01:37;;;;;;;49.40;24.40;;;2.60;99.90;;;;;;5058334;28;20466;-60
2023/01/22 05:04:03;;;;;;;43.20;22.27;;;2.60;99.90;;;;;;5052146;28;20175;-59
2023/01/22 05:06:29;;;;;;;40.80;21.67;;;2.50;99.90;;;;;;5070459;28;20111;-58
2023/01/22 05:08:55;;;;;;;33.28;18.83;;;2.50;99.90;;;;;;5064303;28;20051;-59
2023/01/22 05:11:20;;;;;;;42.50;21.52;;;2.40;99.90;;;;;;5048461;28;20069;-52
2023/01/22 05:13:46;;;;;;;37.72;20.67;;;2.40;99.90;;;;;;5050919;28;20029;-49
2023/01/22 05:16:12;;;;;;;42.58;22.05;;;2.40;99.90;;;;;;5051327;28;20104;-60
2023/01/22 05:18:37;;;;;;;38.72;19.73;;;2.40;99.90;;;;;;5047990;28;20029;-59
2023/01/22 05:21:03;;;;;;;37.83;20.40;;;2.40;99.90;;;;;;5049850;28;20032;-59
2023/01/22 05:23:29;;;;;;;39.25;18.90;;;2.40;99.90;;;;;;5054558;28;20040;-61
2023/01/22 05:25:54;;;;;;;28.38;18.10;;;2.40;99.90;;;;;;5051509;28;20494;-60
2023/01/22 05:28:20;;;;;;;36.55;18.08;;;2.40;99.90;;;;;;5052316;28;20029;-60
2023/01/22 05:30:47;;;;;;;34.30;18.95;;;2.30;99.90;;;;;;5051481;28;20040;-59
2023/01/22 05:33:13;;;;;;;30.75;16.73;;;2.30;99.90;;;;;;5056230;28;20528;-61
2023/01/22 05:35:38;;;;;;;28.23;16.27;;;2.30;99.90;;;;;;5054780;28;20068;-60
2023/01/22 05:38:04;;;;;;;25.98;15.80;;;2.30;99.90;;;;;;5062336;28;20048;-61
2023/01/22 05:40:30;;;;;;;32.15;17.60;;;2.30;99.90;;;;;;5051059;28;20061;-61
2023/01/22 05:42:55;;;;;;;29.52;17.27;;;2.30;99.90;;;;;;5051403;28;20036;-61
2023/01/22 05:45:21;;;;;;;32.28;16.83;;;2.30;99.90;;;;;;5051104;28;20055;-62
2023/01/22 05:47:53;;;;;;;29.70;18.38;;;2.30;99.90;;;;;;5049013;28;20033;-61
2023/01/22 05:50:20;;;;;;;29.90;16.65;;;2.30;99.90;;;;;;5042712;28;20478;-51
2023/01/22 05:52:46;;;;;;;25.05;15.07;;;2.30;99.90;;;;;;5054047;28;20036;-50
2023/01/22 05:55:12;;;;;;;25.63;16.02;;;2.30;99.90;;;;;;5054084;28;20105;-51
2023/01/22 05:57:37;;;;;;;24.35;16.25;;;2.20;99.90;;;;;;5052393;28;20117;-55
2023/01/22 06:00:04;;;;;;;24.63;16.15;;;2.20;99.90;;;;;;5052992;28;20065;-49
2023/01/22 06:02:30;;;;;;;29.63;17.38;;;2.20;99.90;;;;;;5050289;28;20033;-51
2023/01/22 06:04:56;;;;;;;26.80;16.58;;;2.20;99.90;;;;;;5051670;28;20032;-51
2023/01/22 06:07:21;;;;;;;26.58;15.40;;;2.20;99.90;;;;;;5058612;28;20056;-51
2023/01/22 06:09:47;;;;;;;22.58;13.95;;;2.20;99.90;;;;;;5044647;28;20039;-53
2023/01/22 06:12:14;;;;;;;24.50;14.75;;;2.20;99.90;;;;;;5052237;28;20066;-51
2023/01/22 06:14:40;;;;;;;26.33;14.60;;;2.20;99.90;;;;;;5057706;28;20071;-52
2023/01/22 06:17:06;;;;;;;25.63;15.82;;;2.20;99.90;;;;;;5050942;28;20025;-49
2023/01/22 06:19:31;;;;;;;27.92;16.65;;;2.20;99.90;;;;;;5046212;28;20083;-51
2023/01/22 06:21:57;;;;;;;26.73;15.40;;;2.30;99.90;;;;;;5052070;28;20551;-51
2023/01/22 06:24:23;;;;;;;30.83;16.38;;;2.30;99.90;;;;;;5059536;28;20402;-50
2023/01/22 06:26:48;;;;;;;23.48;15.20;;;2.20;99.90;;;;;;5051233;28;20051;-50
2023/01/22 06:29:14;;;;;;;24.38;14.30;;;2.20;99.90;;;;;;5051602;28;20036;-53
2023/01/22 06:31:40;;;;;;;23.40;14.48;;;2.20;99.90;;;;;;5046783;28;20021;-49
2023/01/22 06:34:05;;;;;;;22.30;13.27;;;2.20;99.90;;;;;;5062613;28;20040;-51
2023/01/22 06:36:31;;;;;;;21.50;13.32;;;2.20;99.90;;;;;;5063318;28;20025;-52
2023/01/22 06:38:56;;;;;;;21.75;12.18;;;2.20;99.90;;;;;;5050268;28;20032;-49
2023/01/22 06:41:22;;;;;;;22.50;13.15;;;2.20;99.90;;;;;;5053556;28;20079;-52
2023/01/22 06:43:48;;;;;;;24.83;14.48;;;2.20;99.90;;;;;;5053118;28;20106;-51
2023/01/22 06:46:14;;;;;;;22.70;13.52;;;2.20;99.90;;;;;;5053984;28;20033;-52
2023/01/22 06:48:42;;;;;;;30.65;14.60;;;2.20;99.90;;;;;;5049426;28;20060;-53
2023/01/22 06:51:11;;;;;;;23.10;13.77;;;2.20;99.90;;;;;;5054469;28;20029;-54
2023/01/22 06:53:37;;;;;;;22.05;13.13;;;2.20;99.90;;;;;;5055507;28;20090;-47
2023/01/22 06:56:03;;;;;;;22.58;14.30;;;2.20;99.90;;;;;;5060014;28;20044;-53
2023/01/22 06:58:29;;;;;;;24.00;12.80;;;2.20;99.90;;;;;;5054860;28;20468;-52
2023/01/22 07:00:59;;;;;;;22.48;12.57;;;2.20;99.90;;;;;;5049009;28;20505;-52
2023/01/22 07:03:25;;;;;;;26.75;13.15;;;2.10;99.90;;;;;;5048891;28;20101;-50
2023/01/22 07:05:58;;;;;;;28.67;13.55;;;2.10;99.90;;;;;;5048368;28;20033;-49
2023/01/22 07:08:24;;;;;;;26.58;14.80;;;2.10;99.90;;;;;;5047489;28;20056;-48
2023/01/22 07:10:50;;;;;;;20.90;12.10;;;2.10;99.90;;;;;;5049456;28;20032;-60
2023/01/22 07:13:16;;;;;;;18.88;11.65;;;2.10;99.90;;;;;;5050523;28;20479;-58
2023/01/22 07:15:41;;;;;;;17.25;10.48;;;2.10;99.90;;;;;;5055332;28;20063;-48
2023/01/22 07:18:09;;;;;;;18.30;11.23;;;2.10;99.90;;;;;;5049822;28;20368;-48
2023/01/22 07:20:35;;;;;;;22.10;13.30;;;2.10;99.90;;;;;;5046454;28;20040;-51
2023/01/22 07:23:01;;;;;;;21.73;12.48;;;2.20;99.90;;;;;;5050700;28;20037;-47
2023/01/22 07:25:27;;;;;;;21.02;13.15;;;2.10;99.90;;;;;;5054998;28;20036;-49
2023/01/22 07:28:00;;;;;;;20.33;11.57;;;2.20;99.90;;;;;;5062082;28;20040;-47
2023/01/22 07:30:27;;;;;;;23.05;13.80;;;2.20;99.90;;;;;;5048900;28;20033;-48
2023/01/22 07:32:52;;;;;;;25.25;13.90;;;2.20;99.90;;;;;;5052367;28;20090;-54
2023/01/22 07:35:18;;;;;;;18.67;11.98;;;2.20;99.90;;;;;;5053905;28;20024;-58
2023/01/22 07:37:54;;;;;;;25.13;12.75;;;2.20;99.90;;;;;;5053734;28;20040;-57
2023/01/22 07:40:20;;;;;;;24.02;12.82;;;2.20;99.90;;;;;;5051208;28;20025;-51
2023/01/22 07:42:46;;;;;;;22.45;13.07;;;2.20;99.90;;;;;;5053533;28;20086;-52
2023/01/22 07:45:11;;;;;;;27.05;14.00;;;2.20;99.90;;;;;;5053033;28;20588;-50
2023/01/22 07:47:37;;;;;;;23.52;13.65;;;2.20;99.90;;;;;;5060751;28;20032;-49
2023/01/22 07:50:04;;;;;;;21.38;12.68;;;2.20;99.90;;;;;;5066066;28;20033;-50
2023/01/22 07:52:29;;;;;;;22.85;13.35;;;2.20;99.90;;;;;;5068875;28;20039;-53
2023/01/22 07:54:55;;;;;;;19.70;11.85;;;2.20;99.90;;;;;;5059411;28;20032;-49
2023/01/22 07:57:21;;;;;;;23.08;13.52;;;2.20;99.90;;;;;;5057808;28;20033;-52
2023/01/22 07:59:46;;;;;;;20.55;12.38;;;2.20;99.90;;;;;;5051843;28;20028;-52
2023/01/22 08:02:13;;;;;;;23.23;12.73;;;2.30;99.90;;;;;;5055844;28;20043;-59
2023/01/22 08:04:40;;;;;;;14.35;9.75;;;2.30;99.90;;;;;;5069810;28;20115;-58
2023/01/22 08:07:10;;;;;;;19.63;10.70;;;2.30;99.90;;;;;;5053415;28;20399;-53
2023/01/22 08:09:36;;;;;;;18.35;10.35;;;2.40;99.90;;;;;;5057732;28;20037;-54
2023/01/22 08:12:02;;;;;;;14.95;9.80;;;2.40;99.90;;;;;;5065332;28;20471;-59
2023/01/22 08:14:28;;;;;;;14.57;8.75;;;2.50;99.90;;;;;;5032281;28;20041;-59
2023/01/22 08:16:53;;;;;;;13.55;8.40;;;2.50;99.90;;;;;;5058441;28;21386;-60
2023/01/22 08:19:19;;;;;;;13.93;8.35;;;2.50;99.90;;;;;;5058298;28;20128;-59
2023/01/22 08:21:45;;;;;;;13.23;8.77;;;2.60;99.50;;;;;;5062185;28;20035;-57
2023/01/22 08:24:11;;;;;;;11.23;7.93;;;2.60;99.60;;;;;;5059261;28;20139;-58
2023/01/22 08:26:38;;;;;;;11.35;7.25;;;2.70;99.70;;;;;;5055159;28;20029;-58
2023/01/22 08:29:03;;;;;;;12.15;8.05;;;2.70;99.90;;;;;;5045679;28;20034;-59
2023/01/22 08:31:29;;;;;;;12.68;9.05;;;2.80;99.90;;;;;;5051243;28;20064;-48
2023/01/22 08:33:57;;;;;;;13.93;8.82;;;2.90;99.20;;;;;;5059058;28;20028;-50
2023/01/22 08:36:23;;;;;;;17.73;10.20;;;2.90;98.70;;;;;;5050244;28;20037;-48
2023/01/22 08:38:49;;;;;;;21.73;12.43;;;3.00;97.70;;;;;;5054691;28;20048;-51
2023/01/22 08:41:15;;;;;;;21.17;12.50;;;2.90;96.80;;;;;;5067155;28;20040;-47
2023/01/22 08:43:40;;;;;;;22.50;13.25;;;2.90;96.90;;;;;;5053656;28;20094;-51
2023/01/22 08:46:06;;;;;;;20.73;12.88;;;2.90;97.20;;;;;;5054453;28;20061;-49
2023/01/22 08:48:31;;;;;;;22.88;12.25;;;2.90;96.70;;;;;;5064094;28;20030;-49
2023/01/22 08:51:00;;;;;;;23.67;13.18;;;2.80;96.10;;;;;;5050868;28;20074;-47
2023/01/22 08:53:27;;;;;;;22.85;12.80;;;2.80;95.90;;;;;;5063384;28;20033;-48
2023/01/22 08:55:52;;;;;;;18.55;11.23;;;2.70;95.60;;;;;;5052505;28;20563;-53
2023/01/22 08:58:24;;;;;;;22.55;13.90;;;2.60;96.20;;;;;;5061672;28;20128;-51
2023/01/22 09:00:50;;;;;;;20.73;11.88;;;2.50;96.40;;;;;;5063224;28;20142;-47
2023/01/22 09:03:15;;;;;;;22.27;12.20;;;2.50;96.10;;;;;;5053825;28;20465;-50
2023/01/22 09:05:41;;;;;;;21.17;11.45;;;2.50;95.90;;;;;;5071292;28;20466;-49
2023/01/22 09:08:07;;;;;;;21.08;12.80;;;2.40;96.00;;;;;;5051464;28;20388;-50
2023/01/22 09:10:33;;;;;;;23.70;13.52;;;2.40;96.00;;;;;;5059121;28;20087;-51
2023/01/22 09:12:59;;;;;;;24.75;13.07;;;2.30;96.10;;;;;;5062746;28;20036;-50
2023/01/22 09:15:25;;;;;;;20.75;11.30;;;2.30;96.40;;;;;;5051650;28;20107;-58
2023/01/22 09:17:51;;;;;;;19.33;12.15;;;2.20;96.80;;;;;;5060252;28;20484;-58
2023/01/22 09:20:17;;;;;;;16.83;11.68;;;2.20;97.00;;;;;;5047458;28;20068;-60
2023/01/22 09:22:46;;;;;;;16.23;11.25;;;2.20;96.90;;;;;;5060680;28;20037;-59
2023/01/22 09:25:12;;;;;;;16.73;11.50;;;2.20;96.70;;;;;;5057101;28;20041;-58
2023/01/22 09:27:38;;;;;;;22.30;11.57;;;2.20;96.90;;;;;;5049359;28;20032;-58
2023/01/22 09:30:04;;;;;;;17.55;11.25;;;2.20;96.60;;;;;;5049498;28;20131;-60
2023/01/22 09:32:30;;;;;;;15.20;10.52;;;2.20;96.60;;;;;;5068682;28;20032;-59
2023/01/22 09:34:56;;;;;;;14.65;9.57;;;2.10;96.70;;;;;;5055132;28;20079;-61
2023/01/22 09:37:21;;;;;;;12.90;8.98;;;2.10;96.60;;;;;;5048711;28;20037;-59
2023/01/22 09:39:49;;;;;;;15.93;9.05;;;2.10;96.80;;;;;;5058166;28;20068;-59
2023/01/22 09:42:29;;;;;;;15.50;9.48;;;2.10;97.50;;;;;;5050858;28;20035;-60
2023/01/22 09:45:00;;;;;;;18.40;11.25;;;2.20;97.50;;;;;;5062166;28;20229;-59
2023/01/22 09:47:32;;;;;;;15.90;9.63;;;2.20;97.30;;;;;;5055152;28;20663;-60
2023/01/22 09:50:16;;;;;;;17.80;11.40;;;2.30;97.50;;;;;;5050084;28;20031;-59
2023/01/22 09:52:42;;;;;;;17.25;11.20;;;2.30;97.40;;;;;;5074359;28;20037;-57
2023/01/22 09:55:13;;;;;;;17.48;10.57;;;2.40;97.00;;;;;;5060180;28;20043;-60
2023/01/22 09:57:48;;;;;;;19.27;11.10;;;2.40;96.80;;;;;;5044906;28;20106;-60
2023/01/22 10:00:21;;;;;;;17.77;9.93;;;2.40;97.10;;;;;;5051895;28;20041;-58
2023/01/22 10:02:53;;;;;;;14.48;10.00;;;2.40;96.70;;;;;;5049045;28;20041;-60
2023/01/22 10:05:29;;;;;;;16.92;10.63;;;2.40;96.70;;;;;;5048654;28;20033;-58
2023/01/22 10:08:17;;;;;;;13.38;9.45;;;2.50;97.30;;;;;;5037046;28;20484;-60
2023/01/22 10:10:44;;;;;;;13.10;9.00;;;2.50;97.40;;;;;;5052204;28;20041;-59
2023/01/22 10:13:31;;;;;;;12.73;8.82;;;2.60;97.60;;;;;;5053088;28;20361;-60
2023/01/22 10:15:57;;;;;;;15.20;10.48;;;2.70;97.40;;;;;;5046804;28;20127;-59
2023/01/22 10:18:22;;;;;;;13.65;8.57;;;2.70;97.50;;;;;;5047664;28;20124;-60
2023/01/22 10:20:49;;;;;;;16.20;9.65;;;2.80;97.20;;;;;;5055325;28;20524;-61
2023/01/22 10:23:18;;;;;;;13.75;8.43;;;2.90;96.80;;;;;;5046879;28;20028;-61
2023/01/22 10:25:45;;;;;;;14.13;9.60;;;2.90;96.70;;;;;;5052388;28;20471;-60
2023/01/22 10:28:12;;;;;;;16.45;10.55;;;2.90;96.60;;;;;;5047825;28;20519;-60
2023/01/22 10:30:46;;;;;;;15.43;9.43;;;3.00;96.50;;;;;;5048135;28;20041;-49
2023/01/22 10:33:16;;;;;;;12.30;8.07;;;3.00;96.30;;;;;;5056240;28;20047;-49
2023/01/22 10:35:47;;;;;;;11.88;7.93;;;3.00;96.10;;;;;;5055150;28;20056;-63
2023/01/22 10:38:28;;;;;;;12.90;8.82;;;3.10;96.10;;;;;;5047576;28;20044;-62
2023/01/22 10:40:58;;;;;;;13.27;8.77;;;3.20;96.00;;;;;;5056228;28;20056;-63
2023/01/22 10:43:31;;;;;;;13.68;9.30;;;3.20;95.80;;;;;;5053366;28;20488;-62
2023/01/22 10:46:03;;;;;;;14.40;8.55;;;3.20;95.50;;;;;;5059099;28;20037;-62
2023/01/22 10:48:29;;;;;;;14.70;8.55;;;3.20;95.40;;;;;;5047215;28;20028;-62
2023/01/22 10:51:13;;;;;;;12.40;7.65;;;3.30;95.30;;;;;;5048495;28;20036;-62
2023/01/22 10:53:50;;;;;;;14.88;8.98;;;3.30;94.90;;;;;;5048652;28;20045;-62
2023/01/22 10:56:28;;;;;;;10.85;7.68;;;3.30;94.50;;;;;;5043092;28;20498;-62
2023/01/22 10:58:54;;;;;;;11.50;8.35;;;3.30;94.40;;;;;;5041092;28;20575;-62
2023/01/22 11:01:28;;;;;;;12.48;8.52;;;3.30;94.80;;;;;;5047194;28;20052;-62
2023/01/22 11:03:54;;;;;;;14.95;9.55;;;3.40;94.30;;;;;;5053706;28;20065;-62
2023/01/22 11:06:26;;;;;;;13.85;9.10;;;3.40;94.60;;;;;;5055972;28;20029;-62
2023/01/22 11:08:59;;;;;;;13.27;9.25;;;3.40;94.50;;;;;;5049394;28;20410;-62
2023/01/22 11:11:56;;;;;;;14.13;8.90;;;3.40;94.50;;;;;;5046185;28;20032;-60
2023/01/22 11:14:32;;;;;;;13.50;9.25;;;3.50;94.40;;;;;;5034850;28;20049;-60
2023/01/22 11:17:20;;;;;;;12.70;7.93;;;3.60;94.10;;;;;;5055566;28;20036;-63
2023/01/22 11:19:57;;;;;;;14.35;9.55;;;3.60;93.70;;;;;;5046359;28;20084;-61
2023/01/22 11:22:32;;;;;;;12.27;8.43;;;3.50;93.50;;;;;;5046890;28;20071;-63
2023/01/22 11:24:58;;;;;;;14.95;7.85;;;3.50;93.00;;;;;;5047798;28;20033;-61
2023/01/22 11:27:42;;;;;;;11.10;7.78;;;3.50;92.90;;;;;;5045813;28;20040;-63
2023/01/22 11:30:37;;;;;;;12.95;8.30;;;3.50;93.30;;;;;;5051964;28;20116;-60
2023/01/22 11:33:15;;;;;;;14.93;9.40;;;3.50;93.10;;;;;;5049485;28;20366;-60
2023/01/22 11:35:50;;;;;;;10.25;7.40;;;3.50;93.40;;;;;;5037192;28;20032;-60
2023/01/22 11:38:40;;;;;;;11.00;8.00;;;3.50;93.30;;;;;;5046463;28;20127;-59
2023/01/22 11:41:31;;;;;;;14.48;8.90;;;3.50;93.30;;;;;;5058391;28;20033;-61
2023/01/22 11:44:09;;;;;;;13.43;8.68;;;3.60;93.20;;;;;;5054543;28;20514;-61
2023/01/22 11:46:56;;;;;;;10.02;7.30;;;3.60;93.20;;;;;;5047421;28;20060;-60
2023/01/22 11:49:52;;;;;;;11.93;7.85;;;3.60;93.00;;;;;;5049017;28;20028;-61
2023/01/22 11:52:29;;;;;;;11.90;8.20;;;3.60;92.90;;;;;;5042295;28;20036;-63
2023/01/22 11:55:11;;;;;;;11.90;7.95;;;3.60;92.90;;;;;;5043861;28;20463;-64
2023/01/22 11:57:47;;;;;;;13.60;8.25;;;3.70;92.90;;;;;;5037069;28;20021;-53
2023/01/22 12:00:36;;;;;;;14.05;8.48;;;3.70;92.70;;;;;;5045223;28;20162;-57
2023/01/22 12:03:11;;;;;;;11.98;8.10;;;3.70;92.60;;;;;;5056572;28;20403;-59
2023/01/22 12:05:58;;;;;;;11.15;7.95;;;3.70;92.50;;;;;;5044941;28;20025;-59
2023/01/22 12:08:50;;;;;;;11.85;7.97;;;3.70;92.30;;;;;;5036701;28;20033;-58
2023/01/22 12:11:26;;;;;;;15.48;9.07;;;3.70;92.40;;;;;;5042874;28;20041;-60
2023/01/22 12:14:10;;;;;;;15.25;9.68;;;3.70;92.50;;;;;;5046535;28;20043;-61
2023/01/22 12:16:55;;;;;;;13.27;8.43;;;3.70;92.50;;;;;;5044685;28;20411;-59
2023/01/22 12:19:41;;;;;;;14.18;9.45;;;3.80;92.40;;;;;;5046877;28;20059;-59
2023/01/22 12:22:33;;;;;;;15.70;9.68;;;3.80;92.20;;;;;;5052271;28;20026;-53
2023/01/22 12:25:36;;;;;;;13.80;9.55;;;3.80;92.10;;;;;;5048657;28;20475;-49
2023/01/22 12:28:17;;;;;;;14.10;9.45;;;3.80;92.10;;;;;;5044343;28;20544;-59
2023/01/22 12:31:30;;;;;;;14.38;8.82;;;3.80;91.80;;;;;;5046637;28;20044;-60
2023/01/22 12:34:02;;;;;;;11.38;7.05;;;3.80;91.60;;;;;;5041888;28;20045;-60
2023/01/22 12:36:28;;;;;;;13.27;7.82;;;3.80;91.70;;;;;;5047716;28;20136;-59
2023/01/22 12:38:59;;;;;;;12.95;8.60;;;3.80;91.80;;;;;;5049833;28;20036;-59
2023/01/22 12:41:37;;;;;;;12.85;8.25;;;3.80;91.70;;;;;;5045228;28;20491;-57
2023/01/22 12:44:13;;;;;;;13.20;8.00;;;3.80;91.70;;;;;;5049513;28;20546;-59
2023/01/22 12:46:41;;;;;;;16.73;9.00;;;3.80;91.80;;;;;;5047789;28;20029;-58
2023/01/22 12:49:15;;;;;;;13.23;8.73;;;3.80;91.70;;;;;;5040727;28;20033;-60
2023/01/22 12:51:55;;;;;;;13.23;8.68;;;3.80;91.60;;;;;;5049743;28;20052;-60
2023/01/22 12:54:27;;;;;;;14.25;8.57;;;3.80;91.30;;;;;;5054304;28;20044;-59
2023/01/22 12:56:56;;;;;;;12.52;8.38;;;3.80;91.40;;;;;;5047221;28;20032;-59
2023/01/22 12:59:46;;;;;;;13.43;8.65;;;3.80;91.50;;;;;;5044694;28;20044;-59
2023/01/22 13:02:20;;;;;;;16.27;9.95;;;3.80;91.50;;;;;;5048574;28;20124;-59